VLG412U EGPH-LEBL
Flight info
| Callsign | VLG412U |
|---|---|
| Flight time | 2h 24m |
| Altitude | 39000 |
| Route | GOSAM P600 FENIK L612 ELBUS DCT NAVSO DCT AKOMU DCT VAMEB UL612 HON DCT SITET DCT ETRAT DCT DVL DCT LGL DCT SORAP DCT BENAR DCT VANAD DCT AMB DCT SOPIL DCT BALAN DCT EVPOK DCT NARAK DCT GAI DCT LOMRA DCT ROCAN DCT PUMAL |
| Aircraft | A320/M-SDE3FGHIRWY/LB1 |
Departure
| Time | 2026-05-07 11:23 |
|---|---|
| Airport | Edinburgh Airport (EGPH) |
Arrival
| Time | 2026-05-07 13:48 |
|---|---|
| Airport | Josep Tarradellas Barcelona-El Prat Airport (LEBL) |
| Time | Latitude | Longitude | Altitude | Speed | Heading |
|---|---|---|---|---|---|
| 2026-05-07 10:53 | 55.94881 | -3.36548 | 113 ft | 0 kts | 148° |
| 2026-05-07 10:56 | 55.94882 | -3.36549 | 113 ft | 0 kts | 148° |
| 2026-05-07 11:14 | 55.94884 | -3.36552 | 112 ft | 3 kts | 145° |
| 2026-05-07 11:15 | 55.94905 | -3.36580 | 113 ft | 4 kts | 138° |
| 2026-05-07 11:15 | 55.94923 | -3.36615 | 115 ft | 4 kts | 116° |
| 2026-05-07 11:15 | 55.94927 | -3.36653 | 112 ft | 2 kts | 60° |
| 2026-05-07 11:15 | 55.94924 | -3.36662 | 113 ft | 0 kts | 59° |
| 2026-05-07 11:18 | 55.94925 | -3.36661 | 113 ft | 1 kts | 59° |
| 2026-05-07 11:18 | 55.94933 | -3.36636 | 114 ft | 4 kts | 59° |
| 2026-05-07 11:18 | 55.94954 | -3.36575 | 112 ft | 7 kts | 59° |
| 2026-05-07 11:19 | 55.94984 | -3.36485 | 114 ft | 10 kts | 59° |
| 2026-05-07 11:19 | 55.95032 | -3.36390 | 115 ft | 11 kts | 13° |
| 2026-05-07 11:19 | 55.95108 | -3.36359 | 115 ft | 13 kts | 56° |
| 2026-05-07 11:19 | 55.95159 | -3.36210 | 114 ft | 15 kts | 59° |
| 2026-05-07 11:20 | 55.95218 | -3.36038 | 116 ft | 17 kts | 59° |
| 2026-05-07 11:20 | 55.95283 | -3.35842 | 111 ft | 19 kts | 59° |
| 2026-05-07 11:20 | 55.95341 | -3.35668 | 113 ft | 12 kts | 58° |
| 2026-05-07 11:20 | 55.95380 | -3.35554 | 114 ft | 7 kts | 58° |
| 2026-05-07 11:21 | 55.95408 | -3.35471 | 112 ft | 9 kts | 58° |
| 2026-05-07 11:21 | 55.95434 | -3.35405 | 113 ft | 10 kts | 39° |
| 2026-05-07 11:21 | 55.95469 | -3.35407 | 114 ft | 0 kts | 327° |
| 2026-05-07 11:21 | 55.95471 | -3.35409 | 114 ft | 0 kts | 327° |
| 2026-05-07 11:22 | 55.95474 | -3.35413 | 113 ft | 2 kts | 327° |
| 2026-05-07 11:22 | 55.95494 | -3.35436 | 113 ft | 5 kts | 327° |
| 2026-05-07 11:22 | 55.95537 | -3.35483 | 113 ft | 10 kts | 329° |
| 2026-05-07 11:22 | 55.95560 | -3.35596 | 113 ft | 12 kts | 243° |
| 2026-05-07 11:23 | 55.95491 | -3.35803 | 112 ft | 42 kts | 238° |
| 2026-05-07 11:23 | 55.95222 | -3.36595 | 111 ft | 103 kts | 239° |
| 2026-05-07 11:23 | 55.94767 | -3.37935 | 145 ft | 145 kts | 239° |
| 2026-05-07 11:23 | 55.94241 | -3.39467 | 776 ft | 144 kts | 236° |
| 2026-05-07 11:24 | 55.93712 | -3.40988 | 1535 ft | 144 kts | 235° |
| 2026-05-07 11:24 | 55.93184 | -3.42516 | 2243 ft | 146 kts | 233° |
| 2026-05-07 11:24 | 55.92623 | -3.44136 | 2636 ft | 163 kts | 234° |
| 2026-05-07 11:24 | 55.91983 | -3.45971 | 2953 ft | 186 kts | 235° |
| 2026-05-07 11:25 | 55.91256 | -3.48065 | 3307 ft | 211 kts | 236° |
| 2026-05-07 11:25 | 55.90506 | -3.50475 | 3783 ft | 234 kts | 249° |
| 2026-05-07 11:25 | 55.90182 | -3.53401 | 4592 ft | 244 kts | 257° |
| 2026-05-07 11:25 | 55.89895 | -3.56400 | 5522 ft | 249 kts | 257° |
| 2026-05-07 11:26 | 55.89577 | -3.59461 | 5946 ft | 253 kts | 252° |
| 2026-05-07 11:26 | 55.88796 | -3.62235 | 6832 ft | 251 kts | 230° |
| 2026-05-07 11:26 | 55.87435 | -3.64164 | 7722 ft | 254 kts | 206° |
| 2026-05-07 11:26 | 55.85709 | -3.64946 | 8573 ft | 260 kts | 191° |
| 2026-05-07 11:27 | 55.83909 | -3.65427 | 9439 ft | 263 kts | 191° |
| 2026-05-07 11:27 | 55.82089 | -3.65896 | 10202 ft | 268 kts | 191° |
| 2026-05-07 11:27 | 55.80229 | -3.66371 | 10951 ft | 271 kts | 191° |
| 2026-05-07 11:27 | 55.78357 | -3.66849 | 11725 ft | 273 kts | 190° |
| 2026-05-07 11:28 | 55.76459 | -3.67339 | 12463 ft | 278 kts | 190° |
| 2026-05-07 11:28 | 55.74538 | -3.67837 | 13229 ft | 281 kts | 190° |
| 2026-05-07 11:28 | 55.72595 | -3.68344 | 13936 ft | 284 kts | 191° |
| 2026-05-07 11:28 | 55.70625 | -3.68858 | 14602 ft | 287 kts | 191° |
| 2026-05-07 11:29 | 55.68659 | -3.69372 | 15231 ft | 291 kts | 191° |
| 2026-05-07 11:29 | 55.66644 | -3.69899 | 15898 ft | 294 kts | 191° |
| 2026-05-07 11:29 | 55.64605 | -3.70434 | 16529 ft | 299 kts | 191° |
| 2026-05-07 11:29 | 55.62536 | -3.70977 | 17161 ft | 303 kts | 191° |
| 2026-05-07 11:30 | 55.60437 | -3.71525 | 17746 ft | 308 kts | 191° |
| 2026-05-07 11:30 | 55.58302 | -3.72079 | 18375 ft | 311 kts | 191° |
| 2026-05-07 11:30 | 55.56147 | -3.72633 | 18917 ft | 314 kts | 192° |
| 2026-05-07 11:30 | 55.53978 | -3.73190 | 19494 ft | 317 kts | 191° |
| 2026-05-07 11:31 | 55.51790 | -3.73757 | 20070 ft | 319 kts | 191° |
| 2026-05-07 11:31 | 55.49586 | -3.74329 | 20626 ft | 322 kts | 191° |
| 2026-05-07 11:31 | 55.47361 | -3.74905 | 21129 ft | 325 kts | 191° |
| 2026-05-07 11:31 | 55.45121 | -3.75488 | 21650 ft | 327 kts | 190° |
| 2026-05-07 11:32 | 55.40597 | -3.76660 | 22716 ft | 331 kts | 189° |
| 2026-05-07 11:32 | 55.38307 | -3.77248 | 23228 ft | 334 kts | 189° |
| 2026-05-07 11:32 | 55.35997 | -3.77842 | 23690 ft | 337 kts | 189° |
| 2026-05-07 11:33 | 55.33668 | -3.78441 | 24140 ft | 339 kts | 189° |
| 2026-05-07 11:33 | 55.31325 | -3.79038 | 24572 ft | 341 kts | 189° |
| 2026-05-07 11:33 | 55.28971 | -3.79634 | 25025 ft | 343 kts | 189° |
| 2026-05-07 11:33 | 55.26600 | -3.80227 | 25436 ft | 346 kts | 188° |
| 2026-05-07 11:34 | 55.24181 | -3.80409 | 25806 ft | 351 kts | 179° |
| 2026-05-07 11:34 | 55.21745 | -3.79906 | 26232 ft | 355 kts | 171° |
| 2026-05-07 11:34 | 55.19353 | -3.78715 | 26610 ft | 360 kts | 161° |
| 2026-05-07 11:34 | 55.17057 | -3.76883 | 26987 ft | 365 kts | 156° |
| 2026-05-07 11:35 | 55.14777 | -3.74913 | 27378 ft | 367 kts | 156° |
| 2026-05-07 11:35 | 55.12478 | -3.72932 | 27770 ft | 370 kts | 156° |
| 2026-05-07 11:35 | 55.10164 | -3.70944 | 28167 ft | 372 kts | 156° |
| 2026-05-07 11:35 | 55.07830 | -3.68944 | 28559 ft | 374 kts | 156° |
| 2026-05-07 11:36 | 55.05494 | -3.66944 | 28938 ft | 377 kts | 156° |
| 2026-05-07 11:36 | 55.03131 | -3.64921 | 29323 ft | 379 kts | 156° |
| 2026-05-07 11:36 | 55.00754 | -3.62886 | 29702 ft | 382 kts | 156° |
| 2026-05-07 11:36 | 54.98363 | -3.60845 | 30079 ft | 384 kts | 156° |
| 2026-05-07 11:37 | 54.95955 | -3.58792 | 30422 ft | 386 kts | 156° |
| 2026-05-07 11:37 | 54.93546 | -3.56741 | 30867 ft | 384 kts | 156° |
| 2026-05-07 11:37 | 54.91152 | -3.54705 | 31379 ft | 382 kts | 156° |
| 2026-05-07 11:37 | 54.88771 | -3.52686 | 31892 ft | 379 kts | 156° |
| 2026-05-07 11:38 | 54.86407 | -3.50680 | 32381 ft | 377 kts | 156° |
| 2026-05-07 11:38 | 54.84054 | -3.48690 | 32858 ft | 375 kts | 156° |
| 2026-05-07 11:38 | 54.81713 | -3.46716 | 33290 ft | 373 kts | 156° |
| 2026-05-07 11:38 | 54.79377 | -3.44749 | 33578 ft | 376 kts | 156° |
| 2026-05-07 11:39 | 54.77007 | -3.42757 | 33727 ft | 382 kts | 156° |
| 2026-05-07 11:39 | 54.74603 | -3.40736 | 33886 ft | 387 kts | 156° |
| 2026-05-07 11:39 | 54.72169 | -3.38688 | 34027 ft | 392 kts | 156° |
| 2026-05-07 11:39 | 54.69695 | -3.36613 | 34132 ft | 397 kts | 155° |
| 2026-05-07 11:40 | 54.67191 | -3.34516 | 34273 ft | 403 kts | 155° |
| 2026-05-07 11:40 | 54.64650 | -3.32392 | 34383 ft | 408 kts | 155° |
| 2026-05-07 11:40 | 54.62076 | -3.30239 | 34517 ft | 414 kts | 155° |
| 2026-05-07 11:40 | 54.59472 | -3.28065 | 34677 ft | 418 kts | 155° |
| 2026-05-07 11:41 | 54.56845 | -3.25877 | 34903 ft | 420 kts | 156° |
| 2026-05-07 11:41 | 54.54204 | -3.23676 | 35005 ft | 423 kts | 156° |
| 2026-05-07 11:41 | 54.51552 | -3.21468 | 35019 ft | 425 kts | 155° |
| 2026-05-07 11:42 | 54.46200 | -3.17030 | 35033 ft | 427 kts | 156° |
| 2026-05-07 11:42 | 54.40840 | -3.12620 | 35033 ft | 427 kts | 155° |
| 2026-05-07 11:43 | 54.35515 | -3.08227 | 35038 ft | 427 kts | 155° |
| 2026-05-07 11:43 | 54.30122 | -3.03789 | 35041 ft | 428 kts | 155° |
| 2026-05-07 11:44 | 54.24788 | -2.99417 | 35041 ft | 428 kts | 155° |
| 2026-05-07 11:44 | 54.19415 | -2.95034 | 35038 ft | 428 kts | 155° |
| 2026-05-07 11:45 | 54.14019 | -2.90747 | 35050 ft | 427 kts | 156° |
| 2026-05-07 11:45 | 54.08554 | -2.86786 | 35051 ft | 427 kts | 158° |
| 2026-05-07 11:46 | 54.03064 | -2.82907 | 35053 ft | 427 kts | 158° |
| 2026-05-07 11:46 | 53.97592 | -2.78980 | 35055 ft | 427 kts | 157° |
| 2026-05-07 11:47 | 53.92132 | -2.75019 | 35034 ft | 427 kts | 156° |
| 2026-05-07 11:47 | 53.86685 | -2.71061 | 35038 ft | 426 kts | 157° |
| 2026-05-07 11:48 | 53.81229 | -2.67135 | 35043 ft | 426 kts | 157° |
| 2026-05-07 11:48 | 53.75768 | -2.63228 | 35049 ft | 426 kts | 157° |
| 2026-05-07 11:49 | 53.70312 | -2.59328 | 35047 ft | 426 kts | 156° |
| 2026-05-07 11:49 | 53.64843 | -2.55422 | 35052 ft | 427 kts | 156° |
| 2026-05-07 11:50 | 53.59374 | -2.51522 | 35047 ft | 427 kts | 156° |
| 2026-05-07 11:50 | 53.53900 | -2.47634 | 35059 ft | 427 kts | 156° |
| 2026-05-07 11:51 | 53.48421 | -2.43763 | 35063 ft | 427 kts | 156° |
| 2026-05-07 11:51 | 53.42934 | -2.39905 | 35062 ft | 428 kts | 156° |
| 2026-05-07 11:52 | 53.37452 | -2.36051 | 35064 ft | 427 kts | 156° |
| 2026-05-07 11:52 | 53.31962 | -2.32209 | 35065 ft | 427 kts | 156° |
| 2026-05-07 11:53 | 53.26474 | -2.28369 | 35069 ft | 427 kts | 156° |
| 2026-05-07 11:53 | 53.20994 | -2.24536 | 35064 ft | 427 kts | 156° |
| 2026-05-07 11:54 | 53.15538 | -2.20746 | 35062 ft | 427 kts | 156° |
| 2026-05-07 11:54 | 53.10051 | -2.16944 | 35069 ft | 427 kts | 156° |
| 2026-05-07 11:55 | 53.04563 | -2.13144 | 35076 ft | 427 kts | 156° |
| 2026-05-07 11:55 | 52.99075 | -2.09353 | 35081 ft | 427 kts | 156° |
| 2026-05-07 11:56 | 52.93581 | -2.05576 | 35056 ft | 427 kts | 156° |
| 2026-05-07 11:56 | 52.88097 | -2.01825 | 35058 ft | 427 kts | 156° |
| 2026-05-07 11:57 | 52.82605 | -1.98068 | 35061 ft | 427 kts | 156° |
| 2026-05-07 11:57 | 52.77104 | -1.94313 | 35064 ft | 428 kts | 156° |
| 2026-05-07 11:58 | 52.71600 | -1.90576 | 35068 ft | 428 kts | 156° |
| 2026-05-07 11:58 | 52.66090 | -1.86836 | 35075 ft | 428 kts | 156° |
| 2026-05-07 11:59 | 52.60579 | -1.83100 | 35078 ft | 429 kts | 156° |
| 2026-05-07 11:59 | 52.55061 | -1.79374 | 35084 ft | 429 kts | 156° |
| 2026-05-07 12:00 | 52.49537 | -1.75660 | 35083 ft | 429 kts | 156° |
| 2026-05-07 12:00 | 52.44015 | -1.71955 | 35067 ft | 429 kts | 156° |
| 2026-05-07 12:01 | 52.38479 | -1.68258 | 35067 ft | 429 kts | 156° |
| 2026-05-07 12:01 | 52.32969 | -1.64485 | 35046 ft | 429 kts | 154° |
| 2026-05-07 12:02 | 52.27576 | -1.60284 | 35073 ft | 429 kts | 153° |
| 2026-05-07 12:02 | 52.22213 | -1.55966 | 35059 ft | 430 kts | 153° |
| 2026-05-07 12:03 | 52.16818 | -1.51731 | 35059 ft | 431 kts | 154° |
| 2026-05-07 12:03 | 52.11385 | -1.47560 | 35062 ft | 432 kts | 154° |
| 2026-05-07 12:04 | 52.05954 | -1.43397 | 35062 ft | 432 kts | 154° |
| 2026-05-07 12:04 | 52.00505 | -1.39237 | 35043 ft | 433 kts | 155° |
| 2026-05-07 12:05 | 51.95044 | -1.35076 | 35042 ft | 434 kts | 155° |
| 2026-05-07 12:05 | 51.89590 | -1.30913 | 35042 ft | 434 kts | 155° |
| 2026-05-07 12:06 | 51.84120 | -1.26741 | 35048 ft | 435 kts | 155° |
| 2026-05-07 12:06 | 51.79563 | -1.23287 | 35051 ft | 435 kts | 155° |
| 2026-05-07 12:07 | 51.74072 | -1.19141 | 35020 ft | 436 kts | 155° |
| 2026-05-07 12:07 | 51.68584 | -1.15003 | 35032 ft | 436 kts | 155° |
| 2026-05-07 12:08 | 51.63079 | -1.10871 | 35039 ft | 437 kts | 155° |
| 2026-05-07 12:08 | 51.57574 | -1.06740 | 35049 ft | 437 kts | 155° |
| 2026-05-07 12:09 | 51.52057 | -1.02607 | 35044 ft | 437 kts | 156° |
| 2026-05-07 12:09 | 51.46534 | -0.98491 | 35050 ft | 438 kts | 156° |
| 2026-05-07 12:10 | 51.41010 | -0.94390 | 35051 ft | 438 kts | 156° |
| 2026-05-07 12:10 | 51.35475 | -0.90276 | 35070 ft | 439 kts | 156° |
| 2026-05-07 12:11 | 51.29979 | -0.86195 | 35050 ft | 439 kts | 157° |
| 2026-05-07 12:11 | 51.24434 | -0.82099 | 35042 ft | 439 kts | 157° |
| 2026-05-07 12:12 | 51.18874 | -0.78020 | 35051 ft | 440 kts | 157° |
| 2026-05-07 12:12 | 51.13313 | -0.73949 | 35055 ft | 440 kts | 157° |
| 2026-05-07 12:13 | 51.07831 | -0.69931 | 35058 ft | 440 kts | 157° |
| 2026-05-07 12:13 | 51.02271 | -0.65871 | 35064 ft | 440 kts | 157° |
| 2026-05-07 12:14 | 50.96719 | -0.61814 | 35076 ft | 440 kts | 157° |
| 2026-05-07 12:14 | 50.91160 | -0.57766 | 35081 ft | 440 kts | 157° |
| 2026-05-07 12:15 | 50.85591 | -0.53741 | 35075 ft | 440 kts | 158° |
| 2026-05-07 12:15 | 50.80024 | -0.49720 | 35077 ft | 440 kts | 157° |
| 2026-05-07 12:16 | 50.74460 | -0.45708 | 35082 ft | 440 kts | 157° |
| 2026-05-07 12:16 | 50.68887 | -0.41698 | 35086 ft | 440 kts | 158° |
| 2026-05-07 12:17 | 50.63387 | -0.37758 | 35078 ft | 440 kts | 158° |
| 2026-05-07 12:17 | 50.57807 | -0.33769 | 35077 ft | 440 kts | 158° |
| 2026-05-07 12:18 | 50.52229 | -0.29800 | 35076 ft | 441 kts | 158° |
| 2026-05-07 12:18 | 50.46640 | -0.25832 | 35082 ft | 441 kts | 158° |
| 2026-05-07 12:19 | 50.41049 | -0.21866 | 35079 ft | 441 kts | 158° |
| 2026-05-07 12:19 | 50.35456 | -0.17898 | 35088 ft | 441 kts | 158° |
| 2026-05-07 12:20 | 50.29861 | -0.13941 | 35093 ft | 441 kts | 158° |
| 2026-05-07 12:20 | 50.24260 | -0.09998 | 35093 ft | 441 kts | 158° |
| 2026-05-07 12:21 | 50.18660 | -0.06058 | 35078 ft | 441 kts | 158° |
| 2026-05-07 12:21 | 50.13066 | -0.02141 | 35097 ft | 441 kts | 158° |
| 2026-05-07 12:22 | 50.07325 | 0.01060 | 35088 ft | 437 kts | 168° |
| 2026-05-07 12:22 | 50.01427 | 0.03375 | 35076 ft | 437 kts | 168° |
| 2026-05-07 12:23 | 49.95525 | 0.05696 | 35083 ft | 438 kts | 168° |
| 2026-05-07 12:23 | 49.89626 | 0.08014 | 35093 ft | 438 kts | 168° |
| 2026-05-07 12:24 | 49.83723 | 0.10340 | 35096 ft | 438 kts | 168° |
| 2026-05-07 12:24 | 49.77817 | 0.12644 | 35095 ft | 438 kts | 168° |
| 2026-05-07 12:25 | 49.71912 | 0.14935 | 35091 ft | 437 kts | 168° |
| 2026-05-07 12:25 | 49.66011 | 0.17244 | 35094 ft | 437 kts | 168° |
| 2026-05-07 12:26 | 49.60130 | 0.19615 | 35095 ft | 437 kts | 167° |
| 2026-05-07 12:26 | 49.54248 | 0.22007 | 35099 ft | 437 kts | 167° |
| 2026-05-07 12:27 | 49.48365 | 0.24377 | 35089 ft | 437 kts | 167° |
| 2026-05-07 12:27 | 49.42482 | 0.26724 | 35069 ft | 437 kts | 167° |
| 2026-05-07 12:28 | 49.36601 | 0.29063 | 35066 ft | 436 kts | 167° |
| 2026-05-07 12:28 | 49.30727 | 0.31395 | 35073 ft | 436 kts | 167° |
| 2026-05-07 12:29 | 49.24860 | 0.33832 | 35074 ft | 437 kts | 166° |
| 2026-05-07 12:29 | 49.19004 | 0.36335 | 35074 ft | 437 kts | 166° |
| 2026-05-07 12:30 | 49.13148 | 0.38819 | 35074 ft | 437 kts | 167° |
| 2026-05-07 12:30 | 49.07296 | 0.41279 | 35066 ft | 437 kts | 167° |
| 2026-05-07 12:31 | 49.01436 | 0.43729 | 35069 ft | 436 kts | 167° |
| 2026-05-07 12:31 | 48.95577 | 0.46164 | 35065 ft | 436 kts | 167° |
| 2026-05-07 12:32 | 48.89716 | 0.48602 | 35067 ft | 437 kts | 167° |
| 2026-05-07 12:32 | 48.83859 | 0.51042 | 35068 ft | 437 kts | 167° |
| 2026-05-07 12:33 | 48.75101 | 0.54632 | 35070 ft | 436 kts | 168° |
| 2026-05-07 12:33 | 48.69185 | 0.56928 | 35070 ft | 436 kts | 168° |
| 2026-05-07 12:34 | 48.63314 | 0.59202 | 35057 ft | 436 kts | 168° |
| 2026-05-07 12:34 | 48.57480 | 0.61485 | 35060 ft | 436 kts | 168° |
| 2026-05-07 12:35 | 48.51604 | 0.63767 | 35064 ft | 436 kts | 168° |
| 2026-05-07 12:35 | 48.45740 | 0.66111 | 35067 ft | 436 kts | 167° |
| 2026-05-07 12:36 | 48.39886 | 0.68521 | 35063 ft | 436 kts | 167° |
| 2026-05-07 12:36 | 48.34041 | 0.70923 | 35064 ft | 436 kts | 167° |
| 2026-05-07 12:37 | 48.28185 | 0.73284 | 35060 ft | 436 kts | 167° |
| 2026-05-07 12:37 | 48.22329 | 0.75629 | 35060 ft | 435 kts | 167° |
| 2026-05-07 12:38 | 48.16467 | 0.77940 | 35052 ft | 435 kts | 168° |
| 2026-05-07 12:38 | 48.10607 | 0.80233 | 35055 ft | 435 kts | 168° |
| 2026-05-07 12:39 | 48.04755 | 0.82527 | 35053 ft | 435 kts | 168° |
| 2026-05-07 12:39 | 47.98895 | 0.84814 | 35047 ft | 435 kts | 168° |
| 2026-05-07 12:40 | 47.93031 | 0.87088 | 35042 ft | 435 kts | 168° |
| 2026-05-07 12:40 | 47.87166 | 0.89372 | 35042 ft | 436 kts | 168° |
| 2026-05-07 12:41 | 47.81299 | 0.91656 | 35047 ft | 436 kts | 168° |
| 2026-05-07 12:41 | 47.75430 | 0.93932 | 35038 ft | 436 kts | 168° |
| 2026-05-07 12:42 | 47.69560 | 0.96204 | 35043 ft | 436 kts | 168° |
| 2026-05-07 12:42 | 47.63698 | 0.98460 | 35048 ft | 436 kts | 168° |
| 2026-05-07 12:43 | 47.57824 | 1.00716 | 35039 ft | 436 kts | 168° |
| 2026-05-07 12:43 | 47.51948 | 1.02974 | 35044 ft | 436 kts | 168° |
| 2026-05-07 12:44 | 47.46081 | 1.05218 | 35046 ft | 436 kts | 168° |
| 2026-05-07 12:44 | 47.40131 | 1.06391 | 35046 ft | 430 kts | 184° |
| 2026-05-07 12:45 | 47.34153 | 1.06216 | 35043 ft | 430 kts | 184° |
| 2026-05-07 12:45 | 47.28173 | 1.06087 | 35043 ft | 430 kts | 184° |
| 2026-05-07 12:46 | 47.22192 | 1.05954 | 35046 ft | 430 kts | 184° |
| 2026-05-07 12:46 | 47.16212 | 1.05815 | 35036 ft | 430 kts | 184° |
| 2026-05-07 12:47 | 47.10274 | 1.05675 | 35039 ft | 429 kts | 184° |
| 2026-05-07 12:47 | 47.04265 | 1.05531 | 35043 ft | 429 kts | 184° |
| 2026-05-07 12:48 | 46.98292 | 1.05349 | 35042 ft | 429 kts | 184° |
| 2026-05-07 12:48 | 46.92363 | 1.05074 | 35042 ft | 429 kts | 185° |
| 2026-05-07 12:49 | 46.86398 | 1.04797 | 35045 ft | 429 kts | 185° |
| 2026-05-07 12:49 | 46.80433 | 1.04547 | 35039 ft | 429 kts | 185° |
| 2026-05-07 12:50 | 46.74475 | 1.04299 | 35037 ft | 429 kts | 185° |
| 2026-05-07 12:50 | 46.68507 | 1.04047 | 35038 ft | 429 kts | 185° |
| 2026-05-07 12:51 | 46.62543 | 1.03792 | 35039 ft | 429 kts | 185° |
| 2026-05-07 12:51 | 46.56579 | 1.03532 | 35041 ft | 429 kts | 185° |
| 2026-05-07 12:52 | 46.51623 | 1.03533 | 35026 ft | 431 kts | 177° |
| 2026-05-07 12:52 | 46.45712 | 1.05300 | 35032 ft | 435 kts | 170° |
| 2026-05-07 12:53 | 46.39821 | 1.07288 | 35034 ft | 434 kts | 171° |
| 2026-05-07 12:53 | 46.33894 | 1.09268 | 35029 ft | 434 kts | 171° |
| 2026-05-07 12:54 | 46.30976 | 1.10236 | 35147 ft | 437 kts | 171° |
| 2026-05-07 12:54 | 46.28010 | 1.11218 | 35491 ft | 437 kts | 171° |
| 2026-05-07 12:54 | 46.25008 | 1.12209 | 35847 ft | 437 kts | 171° |
| 2026-05-07 12:54 | 46.22080 | 1.13177 | 36186 ft | 437 kts | 171° |
| 2026-05-07 12:55 | 46.19114 | 1.14160 | 36525 ft | 437 kts | 171° |
| 2026-05-07 12:55 | 46.16146 | 1.15145 | 36872 ft | 438 kts | 171° |
| 2026-05-07 12:55 | 46.13180 | 1.16128 | 37222 ft | 437 kts | 171° |
| 2026-05-07 12:55 | 46.10216 | 1.17111 | 37552 ft | 437 kts | 170° |
| 2026-05-07 12:56 | 46.07252 | 1.18094 | 37862 ft | 437 kts | 170° |
| 2026-05-07 12:56 | 46.04288 | 1.19073 | 38167 ft | 437 kts | 171° |
| 2026-05-07 12:56 | 46.01322 | 1.20047 | 38460 ft | 437 kts | 171° |
| 2026-05-07 12:56 | 45.98355 | 1.21019 | 38736 ft | 437 kts | 171° |
| 2026-05-07 12:57 | 45.95391 | 1.21991 | 38928 ft | 438 kts | 171° |
| 2026-05-07 12:57 | 45.92419 | 1.22967 | 39010 ft | 438 kts | 171° |
| 2026-05-07 12:57 | 45.86480 | 1.24919 | 39029 ft | 438 kts | 171° |
| 2026-05-07 12:58 | 45.80544 | 1.26864 | 39032 ft | 437 kts | 171° |
| 2026-05-07 12:58 | 45.74610 | 1.28799 | 39023 ft | 437 kts | 171° |
| 2026-05-07 12:59 | 45.68679 | 1.30732 | 39008 ft | 437 kts | 171° |
| 2026-05-07 12:59 | 45.62748 | 1.32661 | 39012 ft | 437 kts | 171° |
| 2026-05-07 13:00 | 45.56818 | 1.34589 | 39008 ft | 438 kts | 171° |
| 2026-05-07 13:00 | 45.50879 | 1.36505 | 39021 ft | 437 kts | 171° |
| 2026-05-07 13:01 | 45.44942 | 1.38419 | 39028 ft | 437 kts | 171° |
| 2026-05-07 13:01 | 45.39004 | 1.40327 | 39027 ft | 437 kts | 171° |
| 2026-05-07 13:02 | 45.33069 | 1.42237 | 39032 ft | 437 kts | 171° |
| 2026-05-07 13:02 | 45.27144 | 1.44144 | 39042 ft | 437 kts | 171° |
| 2026-05-07 13:03 | 45.21215 | 1.46045 | 39039 ft | 436 kts | 171° |
| 2026-05-07 13:03 | 45.15290 | 1.47933 | 39050 ft | 436 kts | 171° |
| 2026-05-07 13:04 | 45.09379 | 1.49809 | 39053 ft | 435 kts | 171° |
| 2026-05-07 13:04 | 45.03507 | 1.51673 | 39049 ft | 435 kts | 171° |
| 2026-05-07 13:05 | 44.97601 | 1.53552 | 39011 ft | 435 kts | 171° |
| 2026-05-07 13:05 | 44.91700 | 1.55436 | 39023 ft | 435 kts | 171° |
| 2026-05-07 13:06 | 44.85800 | 1.57299 | 39024 ft | 434 kts | 171° |
| 2026-05-07 13:06 | 44.79901 | 1.59153 | 39026 ft | 434 kts | 171° |
| 2026-05-07 13:07 | 44.74011 | 1.61001 | 39028 ft | 434 kts | 171° |
| 2026-05-07 13:07 | 44.68116 | 1.62858 | 39029 ft | 434 kts | 171° |
| 2026-05-07 13:08 | 44.62220 | 1.64709 | 39029 ft | 434 kts | 171° |
| 2026-05-07 13:08 | 44.56326 | 1.66549 | 39020 ft | 434 kts | 171° |
| 2026-05-07 13:09 | 44.50432 | 1.68392 | 39030 ft | 434 kts | 171° |
| 2026-05-07 13:09 | 44.44545 | 1.70221 | 39029 ft | 434 kts | 171° |
| 2026-05-07 13:10 | 44.38654 | 1.72047 | 39023 ft | 433 kts | 171° |
| 2026-05-07 13:10 | 44.32767 | 1.73881 | 39029 ft | 433 kts | 171° |
| 2026-05-07 13:11 | 44.26874 | 1.75623 | 39030 ft | 432 kts | 173° |
| 2026-05-07 13:11 | 44.20942 | 1.76944 | 39023 ft | 431 kts | 175° |
| 2026-05-07 13:12 | 44.15006 | 1.78123 | 39027 ft | 431 kts | 175° |
| 2026-05-07 13:12 | 44.09110 | 1.79367 | 39029 ft | 431 kts | 174° |
| 2026-05-07 13:13 | 44.03179 | 1.80682 | 39028 ft | 432 kts | 174° |
| 2026-05-07 13:13 | 43.97248 | 1.82007 | 39026 ft | 431 kts | 174° |
| 2026-05-07 13:14 | 43.91308 | 1.83052 | 39029 ft | 429 kts | 178° |
| 2026-05-07 13:14 | 43.85362 | 1.83557 | 39033 ft | 428 kts | 180° |
| 2026-05-07 13:15 | 43.79407 | 1.83981 | 39032 ft | 428 kts | 180° |
| 2026-05-07 13:15 | 43.73466 | 1.84508 | 39033 ft | 428 kts | 179° |
| 2026-05-07 13:16 | 43.67532 | 1.85099 | 39036 ft | 427 kts | 179° |
| 2026-05-07 13:16 | 43.61604 | 1.85686 | 39028 ft | 427 kts | 179° |
| 2026-05-07 13:17 | 43.55676 | 1.86261 | 39020 ft | 427 kts | 179° |
| 2026-05-07 13:17 | 43.49758 | 1.86829 | 39030 ft | 426 kts | 179° |
| 2026-05-07 13:18 | 43.43840 | 1.87403 | 39023 ft | 426 kts | 179° |
| 2026-05-07 13:18 | 43.37923 | 1.87965 | 39008 ft | 426 kts | 179° |
| 2026-05-07 13:19 | 43.32017 | 1.88529 | 39008 ft | 426 kts | 179° |
| 2026-05-07 13:19 | 43.26108 | 1.89104 | 39008 ft | 425 kts | 179° |
| 2026-05-07 13:20 | 43.20202 | 1.89669 | 38998 ft | 425 kts | 179° |
| 2026-05-07 13:20 | 43.14305 | 1.90233 | 39003 ft | 425 kts | 179° |
| 2026-05-07 13:21 | 43.08373 | 1.90793 | 38638 ft | 428 kts | 179° |
| 2026-05-07 13:21 | 43.05423 | 1.91072 | 38341 ft | 422 kts | 180° |
| 2026-05-07 13:21 | 43.02548 | 1.91345 | 37967 ft | 419 kts | 180° |
| 2026-05-07 13:22 | 42.99645 | 1.91622 | 37420 ft | 417 kts | 180° |
| 2026-05-07 13:22 | 42.96781 | 1.91898 | 37219 ft | 408 kts | 180° |
| 2026-05-07 13:22 | 42.93969 | 1.92170 | 36907 ft | 402 kts | 180° |
| 2026-05-07 13:22 | 42.91191 | 1.92434 | 36550 ft | 398 kts | 180° |
| 2026-05-07 13:23 | 42.88440 | 1.92694 | 36166 ft | 394 kts | 181° |
| 2026-05-07 13:23 | 42.85720 | 1.92949 | 35794 ft | 391 kts | 181° |
| 2026-05-07 13:23 | 42.83023 | 1.93200 | 35361 ft | 386 kts | 181° |
| 2026-05-07 13:23 | 42.80358 | 1.93447 | 34831 ft | 381 kts | 181° |
| 2026-05-07 13:24 | 42.77727 | 1.93694 | 34305 ft | 377 kts | 181° |
| 2026-05-07 13:24 | 42.75128 | 1.93939 | 33750 ft | 372 kts | 181° |
| 2026-05-07 13:24 | 42.72543 | 1.94180 | 33054 ft | 375 kts | 181° |
| 2026-05-07 13:24 | 42.69921 | 1.94418 | 32249 ft | 381 kts | 181° |
| 2026-05-07 13:25 | 42.67255 | 1.94667 | 31479 ft | 387 kts | 179° |
| 2026-05-07 13:25 | 42.64550 | 1.95044 | 30706 ft | 393 kts | 179° |
| 2026-05-07 13:25 | 42.61842 | 1.94970 | 29968 ft | 388 kts | 194° |
| 2026-05-07 13:25 | 42.59261 | 1.93939 | 29182 ft | 386 kts | 201° |
| 2026-05-07 13:26 | 42.56725 | 1.92764 | 28563 ft | 384 kts | 201° |
| 2026-05-07 13:26 | 42.54206 | 1.91597 | 27968 ft | 382 kts | 201° |
| 2026-05-07 13:26 | 42.51694 | 1.90438 | 27399 ft | 380 kts | 200° |
| 2026-05-07 13:26 | 42.49193 | 1.89290 | 26831 ft | 379 kts | 200° |
| 2026-05-07 13:27 | 42.46703 | 1.88147 | 26258 ft | 377 kts | 200° |
| 2026-05-07 13:27 | 42.44224 | 1.87009 | 25717 ft | 375 kts | 200° |
| 2026-05-07 13:27 | 42.41752 | 1.85879 | 25170 ft | 374 kts | 200° |
| 2026-05-07 13:27 | 42.39286 | 1.84753 | 24641 ft | 374 kts | 200° |
| 2026-05-07 13:28 | 42.36825 | 1.83628 | 24111 ft | 373 kts | 200° |
| 2026-05-07 13:28 | 42.34370 | 1.82508 | 23594 ft | 372 kts | 200° |
| 2026-05-07 13:28 | 42.31924 | 1.81394 | 22994 ft | 371 kts | 200° |
| 2026-05-07 13:28 | 42.29482 | 1.80283 | 22397 ft | 370 kts | 200° |
| 2026-05-07 13:29 | 42.27046 | 1.79172 | 21813 ft | 369 kts | 200° |
| 2026-05-07 13:29 | 42.24627 | 1.78070 | 21219 ft | 367 kts | 200° |
| 2026-05-07 13:29 | 42.22212 | 1.76972 | 20655 ft | 365 kts | 200° |
| 2026-05-07 13:29 | 42.19822 | 1.75886 | 20271 ft | 359 kts | 200° |
| 2026-05-07 13:30 | 42.17481 | 1.74825 | 19942 ft | 351 kts | 200° |
| 2026-05-07 13:30 | 42.15186 | 1.73784 | 19592 ft | 345 kts | 200° |
| 2026-05-07 13:30 | 42.12934 | 1.72765 | 19251 ft | 339 kts | 199° |
| 2026-05-07 13:30 | 42.10718 | 1.71762 | 18913 ft | 334 kts | 199° |
| 2026-05-07 13:31 | 42.08535 | 1.70773 | 18572 ft | 328 kts | 199° |
| 2026-05-07 13:31 | 42.06385 | 1.69801 | 18234 ft | 324 kts | 199° |
| 2026-05-07 13:31 | 42.04261 | 1.68842 | 17855 ft | 320 kts | 199° |
| 2026-05-07 13:31 | 42.02163 | 1.67892 | 17472 ft | 317 kts | 199° |
| 2026-05-07 13:32 | 42.00084 | 1.66950 | 17085 ft | 314 kts | 199° |
| 2026-05-07 13:32 | 41.98023 | 1.66016 | 16740 ft | 311 kts | 199° |
| 2026-05-07 13:32 | 41.95978 | 1.65094 | 16370 ft | 309 kts | 199° |
| 2026-05-07 13:32 | 41.93950 | 1.64181 | 16009 ft | 306 kts | 199° |
| 2026-05-07 13:33 | 41.91933 | 1.63275 | 15661 ft | 305 kts | 199° |
| 2026-05-07 13:33 | 41.89929 | 1.62376 | 15311 ft | 303 kts | 199° |
| 2026-05-07 13:33 | 41.87936 | 1.61482 | 14954 ft | 301 kts | 199° |
| 2026-05-07 13:33 | 41.85956 | 1.60590 | 14617 ft | 298 kts | 199° |
| 2026-05-07 13:34 | 41.84016 | 1.59720 | 14286 ft | 294 kts | 199° |
| 2026-05-07 13:34 | 41.80138 | 1.58026 | 13595 ft | 293 kts | 193° |
| 2026-05-07 13:34 | 41.78116 | 1.57759 | 13222 ft | 292 kts | 184° |
| 2026-05-07 13:35 | 41.76086 | 1.57615 | 12856 ft | 292 kts | 184° |
| 2026-05-07 13:35 | 41.74059 | 1.57475 | 12491 ft | 291 kts | 184° |
| 2026-05-07 13:35 | 41.72037 | 1.57335 | 12130 ft | 291 kts | 184° |
| 2026-05-07 13:35 | 41.70021 | 1.57196 | 11784 ft | 290 kts | 183° |
| 2026-05-07 13:36 | 41.68013 | 1.57058 | 11430 ft | 289 kts | 183° |
| 2026-05-07 13:36 | 41.66007 | 1.56924 | 11087 ft | 288 kts | 182° |
| 2026-05-07 13:36 | 41.64028 | 1.57273 | 10737 ft | 289 kts | 162° |
| 2026-05-07 13:36 | 41.62170 | 1.58195 | 10404 ft | 289 kts | 159° |
| 2026-05-07 13:37 | 41.60297 | 1.59152 | 10067 ft | 288 kts | 159° |
| 2026-05-07 13:37 | 41.58426 | 1.60116 | 9711 ft | 288 kts | 159° |
| 2026-05-07 13:37 | 41.56560 | 1.61083 | 9352 ft | 287 kts | 159° |
| 2026-05-07 13:37 | 41.55303 | 1.61736 | 9110 ft | 287 kts | 159° |
| 2026-05-07 13:38 | 41.52841 | 1.63006 | 8617 ft | 285 kts | 159° |
| 2026-05-07 13:38 | 41.51014 | 1.63940 | 8173 ft | 277 kts | 159° |
| 2026-05-07 13:38 | 41.49232 | 1.64846 | 7721 ft | 271 kts | 159° |
| 2026-05-07 13:38 | 41.47488 | 1.65724 | 7279 ft | 265 kts | 159° |
| 2026-05-07 13:39 | 41.46325 | 1.66303 | 6981 ft | 262 kts | 159° |
| 2026-05-07 13:39 | 41.44652 | 1.67211 | 6539 ft | 258 kts | 155° |
| 2026-05-07 13:39 | 41.43032 | 1.68206 | 6109 ft | 257 kts | 154° |
| 2026-05-07 13:39 | 41.41417 | 1.69240 | 5778 ft | 257 kts | 153° |
| 2026-05-07 13:40 | 41.39815 | 1.70274 | 5532 ft | 255 kts | 153° |
| 2026-05-07 13:40 | 41.38225 | 1.71293 | 5280 ft | 252 kts | 154° |
| 2026-05-07 13:40 | 41.36671 | 1.72282 | 5030 ft | 249 kts | 154° |
| 2026-05-07 13:40 | 41.35098 | 1.73277 | 4778 ft | 246 kts | 154° |
| 2026-05-07 13:41 | 41.33578 | 1.74232 | 4528 ft | 243 kts | 154° |
| 2026-05-07 13:41 | 41.32049 | 1.75190 | 4276 ft | 243 kts | 153° |
| 2026-05-07 13:41 | 41.30533 | 1.76140 | 4095 ft | 237 kts | 153° |
| 2026-05-07 13:41 | 41.29071 | 1.77052 | 3962 ft | 227 kts | 152° |
| 2026-05-07 13:42 | 41.27667 | 1.77927 | 3840 ft | 218 kts | 153° |
| 2026-05-07 13:42 | 41.26325 | 1.78768 | 3709 ft | 210 kts | 153° |
| 2026-05-07 13:42 | 41.25015 | 1.79592 | 3583 ft | 207 kts | 153° |
| 2026-05-07 13:42 | 41.23718 | 1.80408 | 3454 ft | 205 kts | 152° |
| 2026-05-07 13:43 | 41.22449 | 1.81260 | 3330 ft | 203 kts | 142° |
| 2026-05-07 13:43 | 41.21654 | 1.82698 | 3207 ft | 198 kts | 105° |
| 2026-05-07 13:43 | 41.21689 | 1.84530 | 3093 ft | 200 kts | 69° |
| 2026-05-07 13:43 | 41.22343 | 1.86172 | 2998 ft | 202 kts | 64° |
| 2026-05-07 13:44 | 41.22893 | 1.87872 | 3001 ft | 199 kts | 69° |
| 2026-05-07 13:44 | 41.23427 | 1.89539 | 2862 ft | 194 kts | 68° |
| 2026-05-07 13:44 | 41.23975 | 1.91159 | 2633 ft | 191 kts | 66° |
| 2026-05-07 13:44 | 41.24523 | 1.92756 | 2403 ft | 189 kts | 68° |
| 2026-05-07 13:45 | 41.25061 | 1.94319 | 2156 ft | 183 kts | 67° |
| 2026-05-07 13:45 | 41.25580 | 1.95825 | 1894 ft | 175 kts | 69° |
| 2026-05-07 13:45 | 41.26056 | 1.97210 | 1677 ft | 164 kts | 68° |
| 2026-05-07 13:45 | 41.26508 | 1.98521 | 1473 ft | 149 kts | 68° |
| 2026-05-07 13:46 | 41.26922 | 1.99724 | 1272 ft | 139 kts | 68° |
| 2026-05-07 13:46 | 41.27320 | 2.00882 | 1097 ft | 135 kts | 68° |
| 2026-05-07 13:46 | 41.27716 | 2.02004 | 891 ft | 135 kts | 68° |
| 2026-05-07 13:46 | 41.28101 | 2.03135 | 697 ft | 133 kts | 68° |
| 2026-05-07 13:47 | 41.28486 | 2.04264 | 468 ft | 135 kts | 69° |
| 2026-05-07 13:47 | 41.28878 | 2.05408 | 330 ft | 134 kts | 70° |
| 2026-05-07 13:47 | 41.29259 | 2.06529 | 159 ft | 132 kts | 68° |
| 2026-05-07 13:47 | 41.29633 | 2.07638 | 30 ft | 128 kts | 68° |
| 2026-05-07 13:48 | 41.29951 | 2.08565 | 24 ft | 87 kts | 65° |
| 2026-05-07 13:48 | 41.30121 | 2.09087 | 17 ft | 39 kts | 76° |
| 2026-05-07 13:48 | 41.30128 | 2.09363 | 15 ft | 16 kts | 97° |
| 2026-05-07 13:48 | 41.30107 | 2.09424 | 16 ft | 3 kts | 136° |
| 2026-05-07 13:49 | 41.30070 | 2.09437 | 16 ft | 8 kts | 205° |
| 2026-05-07 13:49 | 41.30032 | 2.09346 | 18 ft | 15 kts | 245° |
| 2026-05-07 13:49 | 41.29979 | 2.09196 | 20 ft | 21 kts | 244° |
| 2026-05-07 13:49 | 41.29912 | 2.08996 | 18 ft | 27 kts | 245° |
| 2026-05-07 13:50 | 41.29827 | 2.08750 | 18 ft | 33 kts | 245° |
| 2026-05-07 13:50 | 41.29726 | 2.08452 | 17 ft | 36 kts | 246° |
| 2026-05-07 13:50 | 41.29643 | 2.08208 | 17 ft | 29 kts | 245° |
| 2026-05-07 13:50 | 41.29562 | 2.07975 | 19 ft | 21 kts | 245° |
| 2026-05-07 13:51 | 41.29508 | 2.07815 | 17 ft | 19 kts | 245° |
| 2026-05-07 13:51 | 41.29444 | 2.07630 | 17 ft | 25 kts | 245° |
| 2026-05-07 13:51 | 41.29366 | 2.07546 | 16 ft | 10 kts | 152° |
| 2026-05-07 13:51 | 41.29280 | 2.07592 | 17 ft | 16 kts | 156° |
| 2026-05-07 13:52 | 41.29175 | 2.07655 | 19 ft | 11 kts | 156° |
| 2026-05-07 13:52 | 41.29132 | 2.07708 | 19 ft | 8 kts | 142° |
| 2026-05-07 13:52 | 41.29088 | 2.07735 | 21 ft | 3 kts | 156° |
| 2026-05-07 13:52 | 41.29075 | 2.07743 | 20 ft | 0 kts | 155° |